الصفحة الرئيسية
METAR-TAF:

METAR-TAF

مطار :

ليما, بيرو

دائرة عرض: 12-00S, خط طول: 077-07W, ارتفاع: 12 متر

مراقبة الطقس الحالي

تاريخ ووقت الإصدار 22 دقيقة قبل الساعة 03:00UTC
ريح 9 عقدة من الجنوب/الجنوب الشرقي
درجة الحرارة 16°درجة مئوية
الرطوبة 88%
ضغط 1014 hPa
الرؤية: 8000 متر
ملبد بالغيوم على ارتفاع 1000 قدم

METAR: SPJC 240300Z 16009KT 8000 OVC010 16/14 Q1014 NOSIG RMK PP000

زمن: 22:22 (03:22 UTC)

توقعات

تاريخ ووقت الإصدار 4ساعات و 22 دقيقة قبل الساعة 23:00UTC
التوقعات صالحة من24 الساعة 00 UTC إلى 24 الساعة 24 UTC
ريح 10 عقدة من الجنوب
الرؤية: 8000 متر
ملبد بالغيوم على ارتفاع 1000 قدم
أصبح
من 24 الساعة 04 UTC إلى 24 الساعة 06 UTC
ملبد بالغيوم على ارتفاع 700 قدم
أصبح
من 24 الساعة 12 UTC إلى 24 الساعة 14 UTC
ملبد بالغيوم على ارتفاع 1400 قدم
من 24 الساعة 1900 UTC
ريح 8 عقدة من الجنوب/الجنوب الغربي
الرؤية 10 كم أو أكثر
غيوم متفرقة على ارتفاع 1500 قدم

TAF: SPJC 232300Z 2400/2424 17010KT 8000 OVC010 TX19/2419Z TN15/2411Z BECMG 2404/2406 OVC007 BECMG 2412/2414 OVC014 FM241900 20008KT 9999 SCT015

أرصاد الطقس والتوقعات من أكثر من 4000 مطار (تقارير الطقس للمطار METAR والتنبؤ بالطقس بالمطارTAF).

المحطات المتاحة هي النقط الصفراء والحمراء على الخريطة.

حرك المؤشر فوق النقطة لمعرفة اسم المحطة.

ثم انقر لمعرفة أرصاد وتوقعات الطقس.

لتغيير الخارطة: اضغط على الأزرار الخضراء مع رمز الصليب الأسود للتكبير. على الزر الأخضر مع شرطة للتصغير، أو على الأسهم الخضراء للخرائط المجاورة.


METAR-TAF: